sensor_id;sensor_type;location;lat;lon;timestamp;P1;durP1;ratioP1;P2;durP2;ratioP2
57561;SDS011;43397;51.530;5.974;2023-04-25T00:00:00;14.27;;;6.75;;
57561;SDS011;43397;51.530;5.974;2023-04-25T00:02:27;13.20;;;5.43;;
57561;SDS011;43397;51.530;5.974;2023-04-25T00:04:53;11.52;;;5.78;;
57561;SDS011;43397;51.530;5.974;2023-04-25T00:07:18;14.60;;;6.18;;
57561;SDS011;43397;51.530;5.974;2023-04-25T00:09:44;13.75;;;6.22;;
57561;SDS011;43397;51.530;5.974;2023-04-25T00:12:10;15.77;;;6.53;;
57561;SDS011;43397;51.530;5.974;2023-04-25T00:14:35;17.75;;;6.28;;
57561;SDS011;43397;51.530;5.974;2023-04-25T00:17:01;13.70;;;5.90;;
57561;SDS011;43397;51.530;5.974;2023-04-25T00:19:28;16.17;;;6.60;;
57561;SDS011;43397;51.530;5.974;2023-04-25T00:21:54;17.77;;;6.30;;
57561;SDS011;43397;51.530;5.974;2023-04-25T00:24:19;16.27;;;5.93;;
57561;SDS011;43397;51.530;5.974;2023-04-25T00:26:45;19.02;;;6.60;;
57561;SDS011;43397;51.530;5.974;2023-04-25T00:29:11;17.10;;;6.15;;
57561;SDS011;43397;51.530;5.974;2023-04-25T00:31:36;13.25;;;5.82;;
57561;SDS011;43397;51.530;5.974;2023-04-25T00:34:02;18.27;;;6.78;;
57561;SDS011;43397;51.530;5.974;2023-04-25T00:36:29;13.57;;;5.70;;
57561;SDS011;43397;51.530;5.974;2023-04-25T00:38:55;15.75;;;6.35;;
57561;SDS011;43397;51.530;5.974;2023-04-25T00:41:20;14.13;;;5.85;;
57561;SDS011;43397;51.530;5.974;2023-04-25T00:43:46;17.42;;;5.47;;
57561;SDS011;43397;51.530;5.974;2023-04-25T00:46:13;12.68;;;5.82;;
57561;SDS011;43397;51.530;5.974;2023-04-25T00:48:39;12.73;;;5.45;;
57561;SDS011;43397;51.530;5.974;2023-04-25T00:51:04;13.35;;;5.88;;
57561;SDS011;43397;51.530;5.974;2023-04-25T00:53:32;14.60;;;6.20;;
57561;SDS011;43397;51.530;5.974;2023-04-25T00:55:58;15.23;;;5.90;;
57561;SDS011;43397;51.530;5.974;2023-04-25T00:58:24;15.77;;;5.75;;
57561;SDS011;43397;51.530;5.974;2023-04-25T01:00:50;16.67;;;5.82;;
57561;SDS011;43397;51.530;5.974;2023-04-25T01:03:17;12.52;;;5.72;;
57561;SDS011;43397;51.530;5.974;2023-04-25T01:05:43;14.60;;;5.78;;
57561;SDS011;43397;51.530;5.974;2023-04-25T01:08:09;14.02;;;6.60;;
57561;SDS011;43397;51.530;5.974;2023-04-25T01:10:36;14.55;;;5.90;;
57561;SDS011;43397;51.530;5.974;2023-04-25T01:13:02;12.98;;;4.82;;
57561;SDS011;43397;51.530;5.974;2023-04-25T01:15:28;15.30;;;5.43;;
57561;SDS011;43397;51.530;5.974;2023-04-25T01:17:54;20.48;;;6.65;;
57561;SDS011;43397;51.530;5.974;2023-04-25T01:20:20;12.23;;;5.47;;
57561;SDS011;43397;51.530;5.974;2023-04-25T01:22:47;15.27;;;5.90;;
57561;SDS011;43397;51.530;5.974;2023-04-25T01:25:13;19.35;;;6.28;;
57561;SDS011;43397;51.530;5.974;2023-04-25T01:27:39;21.02;;;6.45;;
57561;SDS011;43397;51.530;5.974;2023-04-25T01:30:06;15.05;;;5.93;;
57561;SDS011;43397;51.530;5.974;2023-04-25T01:32:33;14.13;;;6.20;;
57561;SDS011;43397;51.530;5.974;2023-04-25T01:34:59;15.50;;;5.63;;
57561;SDS011;43397;51.530;5.974;2023-04-25T01:37:24;19.15;;;6.28;;
57561;SDS011;43397;51.530;5.974;2023-04-25T01:39:51;18.88;;;6.10;;
57561;SDS011;43397;51.530;5.974;2023-04-25T01:42:17;18.08;;;5.88;;
57561;SDS011;43397;51.530;5.974;2023-04-25T01:44:43;14.48;;;6.00;;
57561;SDS011;43397;51.530;5.974;2023-04-25T01:47:09;12.45;;;5.30;;
57561;SDS011;43397;51.530;5.974;2023-04-25T01:49:34;19.05;;;5.82;;
57561;SDS011;43397;51.530;5.974;2023-04-25T01:52:00;16.35;;;5.53;;
57561;SDS011;43397;51.530;5.974;2023-04-25T01:54:26;14.60;;;5.90;;
57561;SDS011;43397;51.530;5.974;2023-04-25T01:56:53;16.30;;;5.95;;
57561;SDS011;43397;51.530;5.974;2023-04-25T01:59:18;15.50;;;5.38;;
57561;SDS011;43397;51.530;5.974;2023-04-25T02:01:44;17.35;;;4.97;;
57561;SDS011;43397;51.530;5.974;2023-04-25T02:04:10;17.92;;;6.05;;
57561;SDS011;43397;51.530;5.974;2023-04-25T02:06:35;17.08;;;6.82;;
57561;SDS011;43397;51.530;5.974;2023-04-25T02:09:01;18.60;;;5.65;;
57561;SDS011;43397;51.530;5.974;2023-04-25T02:11:27;17.27;;;6.20;;
57561;SDS011;43397;51.530;5.974;2023-04-25T02:13:54;18.38;;;5.35;;
57561;SDS011;43397;51.530;5.974;2023-04-25T02:16:20;15.48;;;6.05;;
57561;SDS011;43397;51.530;5.974;2023-04-25T02:18:45;15.25;;;6.13;;
57561;SDS011;43397;51.530;5.974;2023-04-25T02:21:11;12.38;;;6.28;;
57561;SDS011;43397;51.530;5.974;2023-04-25T02:23:37;16.98;;;6.03;;
57561;SDS011;43397;51.530;5.974;2023-04-25T02:26:02;15.50;;;6.47;;
57561;SDS011;43397;51.530;5.974;2023-04-25T02:28:28;19.58;;;6.10;;
57561;SDS011;43397;51.530;5.974;2023-04-25T02:30:55;18.33;;;6.90;;
57561;SDS011;43397;51.530;5.974;2023-04-25T02:33:21;16.02;;;5.45;;
57561;SDS011;43397;51.530;5.974;2023-04-25T02:35:46;20.08;;;6.03;;
57561;SDS011;43397;51.530;5.974;2023-04-25T02:38:12;15.00;;;6.30;;
57561;SDS011;43397;51.530;5.974;2023-04-25T02:40:38;18.73;;;5.72;;
57561;SDS011;43397;51.530;5.974;2023-04-25T02:43:03;13.82;;;5.80;;
57561;SDS011;43397;51.530;5.974;2023-04-25T02:45:29;14.18;;;5.80;;
57561;SDS011;43397;51.530;5.974;2023-04-25T02:47:56;20.88;;;6.78;;
57561;SDS011;43397;51.530;5.974;2023-04-25T02:50:22;20.10;;;6.47;;
57561;SDS011;43397;51.530;5.974;2023-04-25T02:52:47;19.08;;;6.32;;
57561;SDS011;43397;51.530;5.974;2023-04-25T02:55:13;19.48;;;6.28;;
57561;SDS011;43397;51.530;5.974;2023-04-25T02:57:39;21.67;;;6.43;;
57561;SDS011;43397;51.530;5.974;2023-04-25T03:00:05;18.77;;;6.70;;
57561;SDS011;43397;51.530;5.974;2023-04-25T03:02:32;21.30;;;7.20;;
57561;SDS011;43397;51.530;5.974;2023-04-25T03:04:59;14.10;;;6.95;;
57561;SDS011;43397;51.530;5.974;2023-04-25T03:07:24;19.55;;;7.05;;
57561;SDS011;43397;51.530;5.974;2023-04-25T03:09:50;19.08;;;7.32;;
57561;SDS011;43397;51.530;5.974;2023-04-25T03:12:16;19.67;;;6.65;;
57561;SDS011;43397;51.530;5.974;2023-04-25T03:14:41;15.93;;;6.63;;
57561;SDS011;43397;51.530;5.974;2023-04-25T03:17:07;27.15;;;9.95;;
57561;SDS011;43397;51.530;5.974;2023-04-25T03:19:33;29.13;;;8.52;;
57561;SDS011;43397;51.530;5.974;2023-04-25T03:22:00;17.25;;;7.30;;
57561;SDS011;43397;51.530;5.974;2023-04-25T03:24:25;19.23;;;7.85;;
57561;SDS011;43397;51.530;5.974;2023-04-25T03:26:51;20.42;;;7.35;;
57561;SDS011;43397;51.530;5.974;2023-04-25T03:29:16;17.88;;;6.93;;
57561;SDS011;43397;51.530;5.974;2023-04-25T03:31:42;21.98;;;8.55;;
57561;SDS011;43397;51.530;5.974;2023-04-25T03:34:08;21.08;;;7.50;;
57561;SDS011;43397;51.530;5.974;2023-04-25T03:36:34;17.20;;;7.53;;
57561;SDS011;43397;51.530;5.974;2023-04-25T03:39:01;24.77;;;8.07;;
57561;SDS011;43397;51.530;5.974;2023-04-25T03:41:27;17.00;;;7.18;;
57561;SDS011;43397;51.530;5.974;2023-04-25T03:43:53;19.73;;;7.43;;
57561;SDS011;43397;51.530;5.974;2023-04-25T03:46:18;22.45;;;8.48;;
57561;SDS011;43397;51.530;5.974;2023-04-25T03:48:44;27.00;;;8.57;;
57561;SDS011;43397;51.530;5.974;2023-04-25T03:51:10;19.38;;;8.20;;
57561;SDS011;43397;51.530;5.974;2023-04-25T03:53:35;22.58;;;7.80;;
57561;SDS011;43397;51.530;5.974;2023-04-25T03:56:02;25.05;;;7.97;;
57561;SDS011;43397;51.530;5.974;2023-04-25T03:58:28;23.30;;;7.47;;
57561;SDS011;43397;51.530;5.974;2023-04-25T04:00:54;21.30;;;8.20;;
57561;SDS011;43397;51.530;5.974;2023-04-25T04:03:20;22.13;;;7.72;;
57561;SDS011;43397;51.530;5.974;2023-04-25T04:05:45;26.70;;;7.82;;
57561;SDS011;43397;51.530;5.974;2023-04-25T04:08:11;23.50;;;9.85;;
57561;SDS011;43397;51.530;5.974;2023-04-25T04:10:37;23.55;;;8.18;;
57561;SDS011;43397;51.530;5.974;2023-04-25T04:13:04;22.52;;;7.60;;
57561;SDS011;43397;51.530;5.974;2023-04-25T04:15:29;22.77;;;8.70;;
57561;SDS011;43397;51.530;5.974;2023-04-25T04:17:55;19.00;;;8.48;;
57561;SDS011;43397;51.530;5.974;2023-04-25T04:20:21;24.30;;;8.45;;
57561;SDS011;43397;51.530;5.974;2023-04-25T04:22:47;21.02;;;8.60;;
57561;SDS011;43397;51.530;5.974;2023-04-25T04:25:12;26.33;;;8.25;;
57561;SDS011;43397;51.530;5.974;2023-04-25T04:27:38;25.23;;;8.15;;
57561;SDS011;43397;51.530;5.974;2023-04-25T04:30:08;23.27;;;8.00;;
57561;SDS011;43397;51.530;5.974;2023-04-25T04:32:34;25.80;;;7.93;;
57561;SDS011;43397;51.530;5.974;2023-04-25T04:35:00;23.63;;;8.23;;
57561;SDS011;43397;51.530;5.974;2023-04-25T04:37:25;22.27;;;7.50;;
57561;SDS011;43397;51.530;5.974;2023-04-25T04:39:51;20.20;;;7.05;;
57561;SDS011;43397;51.530;5.974;2023-04-25T04:42:17;23.55;;;8.13;;
57561;SDS011;43397;51.530;5.974;2023-04-25T04:44:42;18.80;;;7.80;;
57561;SDS011;43397;51.530;5.974;2023-04-25T04:47:09;28.15;;;8.57;;
57561;SDS011;43397;51.530;5.974;2023-04-25T04:49:35;18.02;;;6.75;;
57561;SDS011;43397;51.530;5.974;2023-04-25T04:52:01;23.42;;;8.00;;
57561;SDS011;43397;51.530;5.974;2023-04-25T04:54:26;24.30;;;8.68;;
57561;SDS011;43397;51.530;5.974;2023-04-25T04:56:52;20.77;;;8.02;;
57561;SDS011;43397;51.530;5.974;2023-04-25T04:59:17;20.10;;;6.90;;
57561;SDS011;43397;51.530;5.974;2023-04-25T05:01:43;19.83;;;7.88;;
57561;SDS011;43397;51.530;5.974;2023-04-25T05:04:10;24.90;;;7.68;;
57561;SDS011;43397;51.530;5.974;2023-04-25T05:06:36;17.10;;;6.53;;
57561;SDS011;43397;51.530;5.974;2023-04-25T05:09:01;16.30;;;7.75;;
57561;SDS011;43397;51.530;5.974;2023-04-25T05:11:27;17.08;;;7.18;;
57561;SDS011;43397;51.530;5.974;2023-04-25T05:13:53;20.90;;;8.15;;
57561;SDS011;43397;51.530;5.974;2023-04-25T05:16:19;25.73;;;8.90;;
57561;SDS011;43397;51.530;5.974;2023-04-25T05:18:45;19.65;;;7.47;;
57561;SDS011;43397;51.530;5.974;2023-04-25T05:21:12;18.90;;;8.20;;
57561;SDS011;43397;51.530;5.974;2023-04-25T05:23:38;19.85;;;7.85;;
57561;SDS011;43397;51.530;5.974;2023-04-25T05:26:04;19.42;;;7.07;;
57561;SDS011;43397;51.530;5.974;2023-04-25T05:28:30;19.00;;;8.35;;
57561;SDS011;43397;51.530;5.974;2023-04-25T05:30:55;19.52;;;7.75;;
57561;SDS011;43397;51.530;5.974;2023-04-25T05:33:21;19.80;;;7.03;;
57561;SDS011;43397;51.530;5.974;2023-04-25T05:35:47;18.63;;;7.03;;
57561;SDS011;43397;51.530;5.974;2023-04-25T05:38:14;15.75;;;7.20;;
57561;SDS011;43397;51.530;5.974;2023-04-25T05:40:39;19.35;;;7.50;;
57561;SDS011;43397;51.530;5.974;2023-04-25T05:43:05;19.50;;;6.97;;
57561;SDS011;43397;51.530;5.974;2023-04-25T05:45:31;14.45;;;6.28;;
57561;SDS011;43397;51.530;5.974;2023-04-25T05:47:56;14.82;;;6.55;;
57561;SDS011;43397;51.530;5.974;2023-04-25T05:50:22;19.20;;;7.00;;
57561;SDS011;43397;51.530;5.974;2023-04-25T05:52:48;15.55;;;6.95;;
57561;SDS011;43397;51.530;5.974;2023-04-25T05:55:15;18.08;;;6.25;;
57561;SDS011;43397;51.530;5.974;2023-04-25T05:57:40;16.05;;;6.75;;
57561;SDS011;43397;51.530;5.974;2023-04-25T06:00:07;17.88;;;5.57;;
57561;SDS011;43397;51.530;5.974;2023-04-25T06:02:33;15.07;;;5.50;;
57561;SDS011;43397;51.530;5.974;2023-04-25T06:04:58;20.88;;;6.30;;
57561;SDS011;43397;51.530;5.974;2023-04-25T06:07:24;20.38;;;7.25;;
57561;SDS011;43397;51.530;5.974;2023-04-25T06:09:50;20.08;;;6.80;;
57561;SDS011;43397;51.530;5.974;2023-04-25T06:12:17;14.43;;;6.07;;
57561;SDS011;43397;51.530;5.974;2023-04-25T06:14:42;19.55;;;5.78;;
57561;SDS011;43397;51.530;5.974;2023-04-25T06:17:08;18.85;;;7.15;;
57561;SDS011;43397;51.530;5.974;2023-04-25T06:19:34;16.30;;;6.90;;
57561;SDS011;43397;51.530;5.974;2023-04-25T06:22:01;19.77;;;7.03;;
57561;SDS011;43397;51.530;5.974;2023-04-25T06:24:27;18.05;;;5.82;;
57561;SDS011;43397;51.530;5.974;2023-04-25T06:26:53;16.33;;;5.80;;
57561;SDS011;43397;51.530;5.974;2023-04-25T06:29:20;15.00;;;5.63;;
57561;SDS011;43397;51.530;5.974;2023-04-25T06:31:46;11.90;;;5.30;;
57561;SDS011;43397;51.530;5.974;2023-04-25T06:34:12;13.88;;;4.72;;
57561;SDS011;43397;51.530;5.974;2023-04-25T06:36:38;15.65;;;5.45;;
57561;SDS011;43397;51.530;5.974;2023-04-25T06:39:03;12.55;;;5.78;;
57561;SDS011;43397;51.530;5.974;2023-04-25T06:41:29;11.82;;;5.05;;
57561;SDS011;43397;51.530;5.974;2023-04-25T06:43:55;21.60;;;6.18;;
57561;SDS011;43397;51.530;5.974;2023-04-25T06:46:22;14.40;;;5.20;;
57561;SDS011;43397;51.530;5.974;2023-04-25T06:48:47;11.43;;;5.72;;
57561;SDS011;43397;51.530;5.974;2023-04-25T06:51:13;13.13;;;6.10;;
57561;SDS011;43397;51.530;5.974;2023-04-25T06:53:39;17.70;;;5.72;;
57561;SDS011;43397;51.530;5.974;2023-04-25T06:56:05;13.32;;;4.80;;
57561;SDS011;43397;51.530;5.974;2023-04-25T06:58:30;13.25;;;5.05;;
57561;SDS011;43397;51.530;5.974;2023-04-25T07:00:56;13.57;;;4.38;;
57561;SDS011;43397;51.530;5.974;2023-04-25T07:03:23;15.32;;;5.18;;
57561;SDS011;43397;51.530;5.974;2023-04-25T07:05:49;12.38;;;4.50;;
57561;SDS011;43397;51.530;5.974;2023-04-25T07:08:15;13.35;;;4.50;;
57561;SDS011;43397;51.530;5.974;2023-04-25T07:10:40;13.93;;;4.68;;
57561;SDS011;43397;51.530;5.974;2023-04-25T07:13:06;12.35;;;4.30;;
57561;SDS011;43397;51.530;5.974;2023-04-25T07:15:32;10.85;;;4.03;;
57561;SDS011;43397;51.530;5.974;2023-04-25T07:17:58;14.35;;;4.22;;
57561;SDS011;43397;51.530;5.974;2023-04-25T07:20:25;12.77;;;4.20;;
57561;SDS011;43397;51.530;5.974;2023-04-25T07:22:52;13.18;;;4.28;;
57561;SDS011;43397;51.530;5.974;2023-04-25T07:25:18;10.00;;;4.40;;
57561;SDS011;43397;51.530;5.974;2023-04-25T07:27:43;10.32;;;4.00;;
57561;SDS011;43397;51.530;5.974;2023-04-25T07:30:09;13.80;;;3.75;;
57561;SDS011;43397;51.530;5.974;2023-04-25T07:32:35;10.90;;;3.97;;
57561;SDS011;43397;51.530;5.974;2023-04-25T07:35:01;8.23;;;3.50;;
57561;SDS011;43397;51.530;5.974;2023-04-25T07:37:28;14.60;;;4.00;;
57561;SDS011;43397;51.530;5.974;2023-04-25T07:39:54;11.18;;;3.60;;
57561;SDS011;43397;51.530;5.974;2023-04-25T07:42:19;9.65;;;3.67;;
57561;SDS011;43397;51.530;5.974;2023-04-25T07:44:45;10.15;;;3.38;;
57561;SDS011;43397;51.530;5.974;2023-04-25T07:47:11;11.75;;;3.05;;
57561;SDS011;43397;51.530;5.974;2023-04-25T07:49:36;12.25;;;4.20;;
57561;SDS011;43397;51.530;5.974;2023-04-25T07:52:02;13.93;;;4.10;;
57561;SDS011;43397;51.530;5.974;2023-04-25T07:54:31;11.85;;;3.90;;
57561;SDS011;43397;51.530;5.974;2023-04-25T07:56:57;13.27;;;3.58;;
57561;SDS011;43397;51.530;5.974;2023-04-25T07:59:22;8.27;;;3.40;;
57561;SDS011;43397;51.530;5.974;2023-04-25T08:01:48;13.52;;;4.55;;
57561;SDS011;43397;51.530;5.974;2023-04-25T08:04:14;12.10;;;3.08;;
57561;SDS011;43397;51.530;5.974;2023-04-25T08:06:40;10.13;;;3.15;;
57561;SDS011;43397;51.530;5.974;2023-04-25T08:09:05;11.40;;;3.20;;
57561;SDS011;43397;51.530;5.974;2023-04-25T08:11:32;11.75;;;3.35;;
57561;SDS011;43397;51.530;5.974;2023-04-25T08:13:58;11.18;;;3.78;;
57561;SDS011;43397;51.530;5.974;2023-04-25T08:16:24;11.77;;;3.13;;
57561;SDS011;43397;51.530;5.974;2023-04-25T08:18:49;12.85;;;2.65;;
57561;SDS011;43397;51.530;5.974;2023-04-25T08:21:15;9.70;;;3.65;;
57561;SDS011;43397;51.530;5.974;2023-04-25T08:23:41;8.73;;;3.35;;
57561;SDS011;43397;51.530;5.974;2023-04-25T08:26:07;11.40;;;3.22;;
57561;SDS011;43397;51.530;5.974;2023-04-25T08:28:34;12.80;;;3.30;;
57561;SDS011;43397;51.530;5.974;2023-04-25T08:30:59;6.72;;;2.28;;
57561;SDS011;43397;51.530;5.974;2023-04-25T08:33:25;8.73;;;2.80;;
57561;SDS011;43397;51.530;5.974;2023-04-25T08:35:51;10.65;;;2.95;;
57561;SDS011;43397;51.530;5.974;2023-04-25T08:38:17;8.77;;;2.92;;
57561;SDS011;43397;51.530;5.974;2023-04-25T08:40:42;7.25;;;2.90;;
57561;SDS011;43397;51.530;5.974;2023-04-25T08:43:09;10.40;;;2.88;;
57561;SDS011;43397;51.530;5.974;2023-04-25T08:45:39;8.35;;;2.92;;
57561;SDS011;43397;51.530;5.974;2023-04-25T08:48:06;10.03;;;3.10;;
57561;SDS011;43397;51.530;5.974;2023-04-25T08:50:35;8.30;;;3.05;;
57561;SDS011;43397;51.530;5.974;2023-04-25T08:53:04;10.68;;;2.55;;
57561;SDS011;43397;51.530;5.974;2023-04-25T08:55:32;9.85;;;2.53;;
57561;SDS011;43397;51.530;5.974;2023-04-25T08:57:58;9.93;;;2.72;;
57561;SDS011;43397;51.530;5.974;2023-04-25T09:00:25;15.15;;;3.15;;
57561;SDS011;43397;51.530;5.974;2023-04-25T09:02:52;12.55;;;3.30;;
57561;SDS011;43397;51.530;5.974;2023-04-25T09:05:19;11.10;;;2.90;;
57561;SDS011;43397;51.530;5.974;2023-04-25T09:07:44;8.95;;;2.70;;
57561;SDS011;43397;51.530;5.974;2023-04-25T09:10:10;11.73;;;2.47;;
57561;SDS011;43397;51.530;5.974;2023-04-25T09:12:36;6.97;;;2.08;;
57561;SDS011;43397;51.530;5.974;2023-04-25T09:15:03;7.15;;;2.13;;
57561;SDS011;43397;51.530;5.974;2023-04-25T09:17:30;8.85;;;1.98;;
57561;SDS011;43397;51.530;5.974;2023-04-25T09:19:58;9.32;;;2.33;;
57561;SDS011;43397;51.530;5.974;2023-04-25T09:22:31;6.10;;;1.73;;
57561;SDS011;43397;51.530;5.974;2023-04-25T09:24:56;7.45;;;2.28;;
57561;SDS011;43397;51.530;5.974;2023-04-25T09:27:22;7.43;;;1.85;;
57561;SDS011;43397;51.530;5.974;2023-04-25T09:29:47;10.77;;;2.47;;
57561;SDS011;43397;51.530;5.974;2023-04-25T09:32:21;9.70;;;2.22;;
57561;SDS011;43397;51.530;5.974;2023-04-25T09:34:48;9.05;;;1.92;;
57561;SDS011;43397;51.530;5.974;2023-04-25T09:37:19;8.10;;;2.10;;
57561;SDS011;43397;51.530;5.974;2023-04-25T09:39:46;6.78;;;1.92;;
57561;SDS011;43397;51.530;5.974;2023-04-25T09:42:13;7.72;;;1.88;;
57561;SDS011;43397;51.530;5.974;2023-04-25T09:44:41;10.75;;;2.38;;
57561;SDS011;43397;51.530;5.974;2023-04-25T09:47:09;7.15;;;2.00;;
57561;SDS011;43397;51.530;5.974;2023-04-25T09:49:38;7.10;;;2.05;;
57561;SDS011;43397;51.530;5.974;2023-04-25T09:52:05;8.38;;;2.38;;
57561;SDS011;43397;51.530;5.974;2023-04-25T09:54:32;7.43;;;2.40;;
57561;SDS011;43397;51.530;5.974;2023-04-25T09:56:57;6.70;;;1.90;;
57561;SDS011;43397;51.530;5.974;2023-04-25T09:59:30;10.25;;;2.20;;
57561;SDS011;43397;51.530;5.974;2023-04-25T10:02:00;6.38;;;1.88;;
57561;SDS011;43397;51.530;5.974;2023-04-25T10:04:26;6.93;;;1.60;;
57561;SDS011;43397;51.530;5.974;2023-04-25T10:06:53;6.80;;;2.30;;
57561;SDS011;43397;51.530;5.974;2023-04-25T10:09:21;5.55;;;1.80;;
57561;SDS011;43397;51.530;5.974;2023-04-25T10:11:52;6.32;;;1.60;;
57561;SDS011;43397;51.530;5.974;2023-04-25T10:14:19;7.45;;;1.95;;
57561;SDS011;43397;51.530;5.974;2023-04-25T10:16:45;6.10;;;1.77;;
57561;SDS011;43397;51.530;5.974;2023-04-25T10:19:10;6.13;;;1.73;;
57561;SDS011;43397;51.530;5.974;2023-04-25T10:21:36;7.03;;;1.55;;
57561;SDS011;43397;51.530;5.974;2023-04-25T10:24:11;4.40;;;1.55;;
57561;SDS011;43397;51.530;5.974;2023-04-25T10:26:37;4.07;;;1.40;;
57561;SDS011;43397;51.530;5.974;2023-04-25T10:29:05;3.53;;;1.50;;
57561;SDS011;43397;51.530;5.974;2023-04-25T10:31:30;4.05;;;1.30;;
57561;SDS011;43397;51.530;5.974;2023-04-25T10:33:56;4.93;;;1.50;;
57561;SDS011;43397;51.530;5.974;2023-04-25T10:36:22;4.38;;;1.30;;
57561;SDS011;43397;51.530;5.974;2023-04-25T10:38:49;3.47;;;1.15;;
57561;SDS011;43397;51.530;5.974;2023-04-25T10:41:17;3.95;;;1.50;;
57561;SDS011;43397;51.530;5.974;2023-04-25T10:43:43;5.80;;;1.83;;
57561;SDS011;43397;51.530;5.974;2023-04-25T10:46:15;4.68;;;1.70;;
57561;SDS011;43397;51.530;5.974;2023-04-25T10:48:45;3.78;;;1.42;;
57561;SDS011;43397;51.530;5.974;2023-04-25T10:51:15;5.68;;;1.65;;
57561;SDS011;43397;51.530;5.974;2023-04-25T10:53:43;3.75;;;1.52;;
57561;SDS011;43397;51.530;5.974;2023-04-25T10:56:09;4.70;;;1.63;;
57561;SDS011;43397;51.530;5.974;2023-04-25T10:58:36;4.35;;;1.70;;
57561;SDS011;43397;51.530;5.974;2023-04-25T11:01:02;5.38;;;1.90;;
57561;SDS011;43397;51.530;5.974;2023-04-25T11:03:29;4.15;;;1.88;;
57561;SDS011;43397;51.530;5.974;2023-04-25T11:05:55;4.78;;;2.00;;
57561;SDS011;43397;51.530;5.974;2023-04-25T11:08:23;7.40;;;2.00;;
57561;SDS011;43397;51.530;5.974;2023-04-25T11:11:02;8.60;;;1.92;;
57561;SDS011;43397;51.530;5.974;2023-04-25T11:13:28;7.63;;;2.10;;
57561;SDS011;43397;51.530;5.974;2023-04-25T11:15:54;6.25;;;1.95;;
57561;SDS011;43397;51.530;5.974;2023-04-25T11:18:20;5.65;;;1.98;;
57561;SDS011;43397;51.530;5.974;2023-04-25T11:20:47;7.38;;;2.10;;
57561;SDS011;43397;51.530;5.974;2023-04-25T11:23:13;6.97;;;2.35;;
57561;SDS011;43397;51.530;5.974;2023-04-25T11:25:40;4.18;;;1.92;;
57561;SDS011;43397;51.530;5.974;2023-04-25T11:28:06;5.45;;;2.35;;
57561;SDS011;43397;51.530;5.974;2023-04-25T11:30:31;10.15;;;3.05;;
57561;SDS011;43397;51.530;5.974;2023-04-25T11:32:57;8.73;;;2.88;;
57561;SDS011;43397;51.530;5.974;2023-04-25T11:35:23;8.20;;;2.92;;
57561;SDS011;43397;51.530;5.974;2023-04-25T11:37:50;6.85;;;2.70;;
57561;SDS011;43397;51.530;5.974;2023-04-25T11:40:16;7.72;;;2.65;;
57561;SDS011;43397;51.530;5.974;2023-04-25T11:42:43;7.05;;;2.40;;
57561;SDS011;43397;51.530;5.974;2023-04-25T11:45:11;7.10;;;1.88;;
57561;SDS011;43397;51.530;5.974;2023-04-25T11:47:37;6.65;;;2.13;;
57561;SDS011;43397;51.530;5.974;2023-04-25T11:50:03;6.47;;;2.10;;
57561;SDS011;43397;51.530;5.974;2023-04-25T11:52:40;4.95;;;1.73;;
57561;SDS011;43397;51.530;5.974;2023-04-25T11:55:09;7.40;;;2.08;;
57561;SDS011;43397;51.530;5.974;2023-04-25T11:57:38;6.78;;;2.20;;
57561;SDS011;43397;51.530;5.974;2023-04-25T12:00:08;9.25;;;2.10;;
57561;SDS011;43397;51.530;5.974;2023-04-25T12:02:35;4.05;;;1.83;;
57561;SDS011;43397;51.530;5.974;2023-04-25T12:05:01;7.85;;;2.40;;
57561;SDS011;43397;51.530;5.974;2023-04-25T12:07:28;3.33;;;1.52;;
57561;SDS011;43397;51.530;5.974;2023-04-25T12:09:54;5.80;;;1.98;;
57561;SDS011;43397;51.530;5.974;2023-04-25T12:12:21;6.78;;;1.95;;
57561;SDS011;43397;51.530;5.974;2023-04-25T12:14:52;6.15;;;1.92;;
57561;SDS011;43397;51.530;5.974;2023-04-25T12:17:17;4.53;;;2.00;;
57561;SDS011;43397;51.530;5.974;2023-04-25T12:19:43;5.75;;;1.90;;
57561;SDS011;43397;51.530;5.974;2023-04-25T12:22:19;9.55;;;2.20;;
57561;SDS011;43397;51.530;5.974;2023-04-25T12:24:45;8.23;;;1.90;;
57561;SDS011;43397;51.530;5.974;2023-04-25T12:27:13;6.10;;;1.85;;
57561;SDS011;43397;51.530;5.974;2023-04-25T12:29:49;8.45;;;1.95;;
57561;SDS011;43397;51.530;5.974;2023-04-25T12:32:16;6.53;;;1.90;;
57561;SDS011;43397;51.530;5.974;2023-04-25T12:34:42;6.78;;;1.73;;
57561;SDS011;43397;51.530;5.974;2023-04-25T12:37:07;6.38;;;2.03;;
57561;SDS011;43397;51.530;5.974;2023-04-25T12:39:33;9.30;;;1.90;;
57561;SDS011;43397;51.530;5.974;2023-04-25T12:41:59;6.97;;;1.90;;
57561;SDS011;43397;51.530;5.974;2023-04-25T12:44:25;8.98;;;2.70;;
57561;SDS011;43397;51.530;5.974;2023-04-25T12:46:52;6.35;;;2.00;;
57561;SDS011;43397;51.530;5.974;2023-04-25T12:49:17;7.22;;;2.33;;
57561;SDS011;43397;51.530;5.974;2023-04-25T12:51:43;4.85;;;1.83;;
57561;SDS011;43397;51.530;5.974;2023-04-25T12:54:09;4.57;;;1.77;;
57561;SDS011;43397;51.530;5.974;2023-04-25T12:56:34;6.63;;;1.95;;
57561;SDS011;43397;51.530;5.974;2023-04-25T12:59:00;5.95;;;1.80;;
57561;SDS011;43397;51.530;5.974;2023-04-25T13:01:26;4.30;;;1.60;;
57561;SDS011;43397;51.530;5.974;2023-04-25T13:03:53;5.78;;;1.30;;
57561;SDS011;43397;51.530;5.974;2023-04-25T13:06:19;4.03;;;1.20;;
57561;SDS011;43397;51.530;5.974;2023-04-25T13:08:45;5.30;;;1.10;;
57561;SDS011;43397;51.530;5.974;2023-04-25T13:11:11;4.95;;;1.10;;
57561;SDS011;43397;51.530;5.974;2023-04-25T13:13:37;3.08;;;1.08;;
57561;SDS011;43397;51.530;5.974;2023-04-25T13:16:04;5.13;;;1.48;;
57561;SDS011;43397;51.530;5.974;2023-04-25T13:18:29;6.20;;;1.80;;
57561;SDS011;43397;51.530;5.974;2023-04-25T13:20:57;4.47;;;1.00;;
57561;SDS011;43397;51.530;5.974;2023-04-25T13:23:24;6.65;;;1.20;;
57561;SDS011;43397;51.530;5.974;2023-04-25T13:25:50;3.25;;;1.10;;
57561;SDS011;43397;51.530;5.974;2023-04-25T13:28:16;2.63;;;0.85;;
57561;SDS011;43397;51.530;5.974;2023-04-25T13:30:41;2.80;;;0.95;;
57561;SDS011;43397;51.530;5.974;2023-04-25T13:33:08;5.78;;;1.33;;
57561;SDS011;43397;51.530;5.974;2023-04-25T13:35:34;3.90;;;1.10;;
57561;SDS011;43397;51.530;5.974;2023-04-25T13:38:01;4.50;;;1.88;;
57561;SDS011;43397;51.530;5.974;2023-04-25T13:40:27;4.60;;;1.45;;
57561;SDS011;43397;51.530;5.974;2023-04-25T13:42:53;5.35;;;2.03;;
57561;SDS011;43397;51.530;5.974;2023-04-25T13:45:19;7.35;;;1.60;;
57561;SDS011;43397;51.530;5.974;2023-04-25T13:47:44;6.90;;;1.52;;
57561;SDS011;43397;51.530;5.974;2023-04-25T13:50:10;5.45;;;2.00;;
57561;SDS011;43397;51.530;5.974;2023-04-25T13:52:36;8.43;;;2.03;;
57561;SDS011;43397;51.530;5.974;2023-04-25T13:55:03;7.45;;;1.83;;
57561;SDS011;43397;51.530;5.974;2023-04-25T13:57:30;7.13;;;1.92;;
57561;SDS011;43397;51.530;5.974;2023-04-25T13:59:55;4.63;;;1.67;;
57561;SDS011;43397;51.530;5.974;2023-04-25T14:02:21;2.92;;;1.42;;
57561;SDS011;43397;51.530;5.974;2023-04-25T14:04:47;6.18;;;1.80;;
57561;SDS011;43397;51.530;5.974;2023-04-25T14:07:13;5.47;;;1.50;;
57561;SDS011;43397;51.530;5.974;2023-04-25T14:09:39;4.97;;;1.90;;
57561;SDS011;43397;51.530;5.974;2023-04-25T14:12:06;8.15;;;1.80;;
57561;SDS011;43397;51.530;5.974;2023-04-25T14:14:31;5.13;;;2.45;;
57561;SDS011;43397;51.530;5.974;2023-04-25T14:16:57;4.63;;;1.60;;
57561;SDS011;43397;51.530;5.974;2023-04-25T14:19:23;5.80;;;1.60;;
57561;SDS011;43397;51.530;5.974;2023-04-25T14:21:48;5.85;;;2.20;;
57561;SDS011;43397;51.530;5.974;2023-04-25T14:24:14;7.80;;;1.95;;
57561;SDS011;43397;51.530;5.974;2023-04-25T14:26:40;7.00;;;2.47;;
57561;SDS011;43397;51.530;5.974;2023-04-25T14:29:08;7.55;;;1.70;;
57561;SDS011;43397;51.530;5.974;2023-04-25T14:31:34;7.80;;;2.00;;
57561;SDS011;43397;51.530;5.974;2023-04-25T14:34:01;5.32;;;1.77;;